Time;durP1;ratioP1;P1;durP2;ratioP2;P2;SDS_P1;SDS_P2;PMS_P1;PMS_P2;Temp;Humidity;BMP_temperature;BMP_pressure;BME280_temperature;BME280_humidity;BME280_pressure;Samples;Min_cycle;Max_cycle;Signal;HPM_P1;HPM_P2
2021/07/21 00:00:36;;;;;;;;;0.00;0.00;;;;;28.95;37.57;101242.59;5057520;28;45538;-67
2021/07/21 00:03:02;;;;;;;;;0.00;0.00;;;;;28.93;37.74;101242.69;5057728;28;45394;-66
2021/07/21 00:05:29;;;;;;;;;0.00;0.00;;;;;28.95;37.87;101244.47;5057955;28;45828;-66
2021/07/21 00:07:57;;;;;;;;;0.00;0.00;;;;;28.92;37.91;101246.41;5057388;28;45845;-66
2021/07/21 00:10:26;;;;;;;;;0.00;0.00;;;;;28.95;38.22;101241.72;5057517;28;45819;-66
2021/07/21 00:15:40;;;;;;;;;0.00;0.00;;;;;28.93;37.46;101239.94;5057705;28;45661;-66
2021/07/21 00:20:54;;;;;;;;;0.00;0.00;;;;;28.90;37.79;101236.50;5057340;28;45393;-66
2021/07/21 00:23:20;;;;;;;;;0.00;0.00;;;;;28.90;37.70;101242.88;5057341;28;45454;-66
2021/07/21 00:25:47;;;;;;;;;0.00;0.00;;;;;28.89;37.98;101237.47;5057596;28;45441;-65
2021/07/21 00:28:13;;;;;;;;;0.00;0.00;;;;;28.89;38.05;101235.59;5057265;28;45433;-66
2021/07/21 00:30:40;;;;;;;;;0.00;0.00;;;;;28.89;37.66;101243.81;5057255;28;45862;-66
2021/07/21 00:33:05;;;;;;;;;0.00;0.00;;;;;28.88;38.08;101239.34;5057233;28;45424;-66
2021/07/21 00:35:31;;;;;;;;;0.00;0.00;;;;;28.87;37.95;101245.75;5057328;28;45373;-66
2021/07/21 00:37:56;;;;;;;;;0.00;0.00;;;;;28.87;38.12;101243.03;5056634;28;45421;-66
2021/07/21 00:40:22;;;;;;;;;0.00;0.00;;;;;28.87;37.60;101250.34;5057111;28;45415;-66
2021/07/21 00:42:48;;;;;;;;;0.00;0.00;;;;;28.86;37.87;101249.44;5057213;28;45408;-66
2021/07/21 00:45:14;;;;;;;;;0.00;0.00;;;;;28.84;38.20;101243.19;5039061;28;45481;-66
2021/07/21 00:47:40;;;;;;;;;0.00;0.00;;;;;28.86;37.80;101256.78;5056826;28;45465;-66
2021/07/21 00:50:08;;;;;;;;;0.00;0.00;;;;;28.85;37.62;101249.56;5056830;28;45379;-67
2021/07/21 00:52:39;;;;;;;;;0.00;0.00;;;;;28.85;37.88;101241.34;5056983;28;45374;-66
2021/07/21 00:55:10;;;;;;;;;0.00;0.00;;;;;28.85;38.35;101250.44;5057088;28;45563;-66
2021/07/21 00:57:36;;;;;;;;;0.00;0.00;;;;;28.84;37.92;101254.13;5056667;28;46088;-66
2021/07/21 01:00:04;;;;;;;;;0.00;0.00;;;;;28.83;38.01;101252.38;5055784;28;45470;-66
2021/07/21 01:02:29;;;;;;;;;0.00;0.00;;;;;28.83;37.82;101260.59;5057048;28;44828;-66
2021/07/21 01:04:54;;;;;;;;;0.00;0.00;;;;;28.83;38.04;101251.50;5056956;28;45408;-66
2021/07/21 01:07:21;;;;;;;;;0.00;0.00;;;;;28.82;38.49;101258.81;5056442;28;46230;-66
2021/07/21 01:09:47;;;;;;;;;0.00;0.00;;;;;28.80;38.14;101252.53;5056673;28;45393;-66
2021/07/21 01:12:32;;;;;;;;;0.00;0.00;;;;;28.80;37.97;101254.38;5056812;28;44863;-67
2021/07/21 01:15:49;;;;;;;;;0.00;0.00;;;;;28.81;38.43;101253.44;5056592;28;45433;-66
2021/07/21 01:18:25;;;;;;;;;0.00;0.00;;;;;28.80;38.41;101260.75;4968843;28;45580;-66
2021/07/21 01:21:36;;;;;;;;;0.00;0.00;;;;;28.74;37.87;101252.84;4974310;28;45531;-66
2021/07/21 01:24:09;;;;;;;;;0.00;0.00;;;;;28.79;38.17;101256.25;4990196;28;45239;-66
2021/07/21 01:26:57;;;;;;;;;0.00;0.00;;;;;28.78;37.94;101248.97;4974526;28;45856;-66
2021/07/21 01:29:27;;;;;;;;;0.00;0.00;;;;;28.78;38.67;101259.94;4915867;28;45451;-67
2021/07/21 01:31:55;;;;;;;;;0.00;0.00;;;;;28.78;38.12;101253.59;4916269;28;45420;-67
2021/07/21 01:34:27;;;;;;;;;0.00;0.00;;;;;28.77;38.70;101247.22;4916038;28;45533;-67
2021/07/21 01:36:55;;;;;;;;;0.00;0.00;;;;;28.76;38.02;101248.19;4916334;28;45446;-67
2021/07/21 01:39:27;;;;;;;;;0.00;0.00;;;;;28.76;38.00;101236.34;4899919;28;48292;-67
2021/07/21 01:41:58;;;;;;;;;0.00;0.00;;;;;28.75;37.91;101240.97;4916234;28;45558;-67
2021/07/21 01:44:26;;;;;;;;;0.00;0.00;;;;;28.76;38.44;101245.44;4916055;28;45462;-67
2021/07/21 01:46:56;;;;;;;;;0.00;0.00;;;;;28.73;38.63;101242.91;4916042;28;45545;-66
2021/07/21 01:49:26;;;;;;;;;0.00;0.00;;;;;28.75;38.03;101254.66;4915654;28;45522;-67
2021/07/21 01:51:52;;;;;;;;;0.00;0.00;;;;;28.75;38.18;101259.25;4915387;28;45569;-68
2021/07/21 01:54:19;;;;;;;;;0.00;0.00;;;;;28.74;38.46;101261.06;4925050;28;45433;-67
2021/07/21 01:56:46;;;;;;;;;0.00;0.00;;;;;28.73;38.42;101262.06;4935214;28;44884;-67
2021/07/21 01:59:12;;;;;;;;;0.00;0.00;;;;;28.72;38.31;101261.19;4934654;28;46357;-67
2021/07/21 02:01:39;;;;;;;;;0.00;0.00;;;;;28.71;38.33;101264.88;4934562;28;45357;-67
2021/07/21 02:04:07;;;;;;;;;0.00;0.00;;;;;28.70;38.05;101268.59;4934843;28;45631;-67
2021/07/21 02:06:34;;;;;;;;;0.00;0.00;;;;;28.71;38.00;101264.00;4990786;28;45485;-67
2021/07/21 02:09:01;;;;;;;;;0.00;0.00;;;;;28.69;38.54;101261.31;5035536;28;45992;-67
2021/07/21 02:11:27;;;;;;;;;0.00;0.00;;;;;28.69;38.33;101271.41;5035334;28;45381;-67
2021/07/21 02:13:58;;;;;;;;;0.00;0.00;;;;;28.69;38.06;101271.41;5036018;28;45851;-67
2021/07/21 02:16:24;;;;;;;;;0.00;0.00;;;;;28.68;38.59;101269.63;5035666;28;45523;-67
2021/07/21 02:18:56;;;;;;;;;0.00;0.00;;;;;28.67;38.01;101266.00;5035266;28;45614;-67
2021/07/21 02:21:24;;;;;;;;;0.00;0.00;;;;;28.64;38.26;101257.06;5035025;28;45500;-67
2021/07/21 02:23:51;;;;;;;;;0.00;0.00;;;;;28.65;38.25;101265.19;5043430;28;45471;-67
2021/07/21 02:26:18;;;;;;;;;0.00;0.00;;;;;28.65;38.67;101262.47;5055357;28;45606;-67
2021/07/21 02:28:51;;;;;;;;;0.00;0.00;;;;;28.64;38.79;101262.53;5055397;28;45421;-69
2021/07/21 02:31:24;;;;;;;;;0.00;0.00;;;;;28.63;38.81;101261.66;5055086;28;45651;-67
2021/07/21 02:34:02;;;;;;;;;0.00;0.00;;;;;28.62;38.27;101259.91;5055502;28;45550;-67
2021/07/21 02:36:27;;;;;;;;;0.00;0.00;;;;;28.63;39.07;101260.78;5055252;28;45365;-67
2021/07/21 02:38:53;;;;;;;;;0.00;0.00;;;;;28.62;38.41;101259.91;5054969;28;45396;-67
2021/07/21 02:41:19;;;;;;;;;0.00;0.00;;;;;28.59;39.01;101257.31;5055179;28;45481;-67
2021/07/21 02:43:45;;;;;;;;;0.00;0.00;;;;;28.61;38.32;101262.72;5055003;28;45886;-67
2021/07/21 02:46:10;;;;;;;;;0.00;0.00;;;;;28.60;38.97;101258.19;5055084;28;45446;-67
2021/07/21 02:48:36;;;;;;;;;0.00;0.00;;;;;28.59;38.80;101260.06;5054803;28;45474;-67
2021/07/21 02:51:07;;;;;;;;;0.00;0.00;;;;;28.59;38.73;101265.53;5054931;28;45485;-67
2021/07/21 02:53:37;;;;;;;;;0.00;0.00;;;;;28.59;38.95;101267.38;5054882;28;45395;-67
2021/07/21 02:56:08;;;;;;;;;0.00;0.00;;;;;28.58;38.48;101263.78;5054930;28;45437;-67
2021/07/21 02:59:00;;;;;;;;;0.00;0.00;;;;;28.59;38.63;101270.13;5054626;28;45427;-67
2021/07/21 03:01:28;;;;;;;;;0.00;0.00;;;;;28.58;38.93;101268.34;5054690;28;45388;-67
2021/07/21 03:03:55;;;;;;;;;0.00;0.00;;;;;28.57;38.47;101269.31;5054810;28;44817;-67
2021/07/21 03:06:24;;;;;;;;;0.00;0.00;;;;;28.54;39.22;101267.59;5055041;28;45412;-67
2021/07/21 03:08:51;;;;;;;;;0.00;0.00;;;;;28.56;38.83;101271.19;5054625;28;45534;-67
2021/07/21 03:11:21;;;;;;;;;0.00;0.00;;;;;28.56;39.07;101267.53;5054557;28;45670;-67
2021/07/21 03:13:53;;;;;;;;;0.00;0.00;;;;;28.56;39.30;101275.75;5054844;28;44809;-67
2021/07/21 03:16:32;;;;;;;;;0.00;0.00;;;;;28.55;38.94;101279.47;5054747;28;45525;-67
2021/07/21 03:19:03;;;;;;;;;0.00;0.00;;;;;28.55;39.05;101283.06;5054337;28;45934;-67
2021/07/21 03:21:30;;;;;;;;;0.00;0.00;;;;;28.52;39.36;101278.66;5054443;28;45491;-67
2021/07/21 03:23:58;;;;;;;;;0.00;0.00;;;;;28.53;39.11;101288.63;5057147;28;45508;-67
2021/07/21 03:26:25;;;;;;;;;0.00;0.00;;;;;28.55;38.90;101293.13;5058141;28;45519;-66
2021/07/21 03:28:53;;;;;;;;;0.00;0.00;;;;;28.52;39.29;101289.59;5057639;28;46296;-67
2021/07/21 03:31:19;;;;;;;;;0.00;0.00;;;;;28.51;39.34;101287.81;5057859;28;45780;-67
2021/07/21 03:33:46;;;;;;;;;0.00;0.00;;;;;28.52;38.83;101291.44;5058006;28;45730;-67
2021/07/21 03:36:13;;;;;;;;;0.00;0.00;;;;;28.51;38.72;101293.28;5058297;28;45482;-67
2021/07/21 03:38:41;;;;;;;;;0.00;0.00;;;;;28.51;39.27;101293.28;5057830;28;45796;-67
2021/07/21 03:41:10;;;;;;;;;0.00;0.00;;;;;28.52;38.80;101294.16;5057905;28;45454;-67
2021/07/21 03:43:36;;;;;;;;;0.00;0.00;;;;;28.51;39.24;101285.06;5057956;28;45465;-67
2021/07/21 03:46:02;;;;;;;;;0.00;0.00;;;;;28.50;39.26;101277.84;5057977;28;45465;-67
2021/07/21 03:48:28;;;;;;;;;0.00;0.00;;;;;28.50;38.90;101266.91;5057295;28;45374;-67
2021/07/21 03:50:57;;;;;;;;;0.00;0.00;;;;;28.50;39.24;101266.00;5057622;28;45418;-67
2021/07/21 03:53:25;;;;;;;;;0.00;0.00;;;;;28.48;38.80;101268.81;5057926;28;45414;-67
2021/07/21 03:55:51;;;;;;;;;0.00;0.00;;;;;28.49;38.81;101281.50;5057783;28;45444;-67
2021/07/21 03:58:16;;;;;;;;;0.00;0.00;;;;;28.48;38.81;101279.75;5057491;28;46040;-67
2021/07/21 04:00:43;;;;;;;;;0.00;0.00;;;;;28.49;38.96;101286.09;5057799;28;45385;-67
2021/07/21 04:03:09;;;;;;;;;0.00;0.00;;;;;28.45;38.89;101279.91;5057491;28;45444;-67
2021/07/21 04:05:36;;;;;;;;;0.00;0.00;;;;;28.47;38.68;101294.38;5057942;28;45599;-66
2021/07/21 04:08:03;;;;;;;;;0.33;0.00;;;;;28.47;38.74;101293.50;5057349;28;46743;-66
2021/07/21 04:10:30;;;;;;;;;0.00;0.00;;;;;28.46;39.36;101289.88;5049299;28;45422;-66
2021/07/21 04:12:59;;;;;;;;;0.00;0.00;;;;;28.46;38.82;101283.50;5039338;28;45501;-67
2021/07/21 04:15:27;;;;;;;;;0.00;0.00;;;;;28.45;38.99;101285.38;5057664;28;45501;-66
2021/07/21 04:18:01;;;;;;;;;0.00;0.00;;;;;28.44;39.52;101286.34;5057178;28;45505;-66
2021/07/21 04:20:27;;;;;;;;;0.00;0.00;;;;;28.45;39.26;101290.84;5040341;28;45375;-67
2021/07/21 04:22:55;;;;;;;;;0.00;0.00;;;;;28.44;39.36;101299.13;5057454;28;45551;-67
2021/07/21 04:25:22;;;;;;;;;0.00;0.00;;;;;28.38;39.50;101289.41;5056097;28;45480;-67
2021/07/21 04:27:49;;;;;;;;;0.00;0.00;;;;;28.43;39.30;101300.97;5057259;28;45532;-66
2021/07/21 04:30:16;;;;;;;;;0.00;0.00;;;;;28.43;39.61;101300.09;5056977;28;45490;-66
2021/07/21 04:32:41;;;;;;;;;0.00;0.00;;;;;28.41;39.04;101297.44;5056950;28;45413;-66
2021/07/21 04:35:10;;;;;;;;;0.00;0.00;;;;;28.42;39.44;101304.69;5056115;28;45469;-67
2021/07/21 04:37:38;;;;;;;;;0.00;0.00;;;;;28.42;39.31;101312.91;5057142;28;45486;-67
2021/07/21 04:40:05;;;;;;;;;0.00;0.00;;;;;28.42;38.95;101306.53;5056786;28;45461;-67
2021/07/21 04:42:30;;;;;;;;;0.00;0.00;;;;;28.40;39.10;101306.63;5056883;28;45467;-67
2021/07/21 04:44:56;;;;;;;;;0.00;0.00;;;;;28.40;39.63;101303.91;5057222;28;45417;-67
2021/07/21 04:47:22;;;;;;;;;0.00;0.00;;;;;28.42;39.17;101309.25;5038828;28;45988;-67
2021/07/21 04:49:48;;;;;;;;;0.00;0.00;;;;;28.41;38.81;101313.84;5056625;28;45524;-67
2021/07/21 04:52:16;;;;;;;;;0.00;0.00;;;;;28.40;39.56;101309.38;5056865;28;45468;-67
2021/07/21 04:54:42;;;;;;;;;0.00;0.00;;;;;28.40;39.43;101317.56;5056932;28;45557;-66
2021/07/21 04:57:10;;;;;;;;;0.00;0.00;;;;;28.40;39.52;101322.13;5056511;28;45436;-66
2021/07/21 04:59:35;;;;;;;;;0.00;0.00;;;;;28.41;39.36;101326.66;5056493;28;45391;-67
2021/07/21 05:02:01;;;;;;;;;0.00;0.00;;;;;28.41;38.91;101333.00;5056685;28;45352;-65
2021/07/21 05:04:26;;;;;;;;;0.00;0.00;;;;;28.40;38.97;101325.78;5056717;28;45483;-67
2021/07/21 05:06:52;;;;;;;;;0.00;0.00;;;;;28.39;39.74;101324.00;5055020;28;48025;-67
2021/07/21 05:09:17;;;;;;;;;0.00;0.00;;;;;28.39;39.29;101326.72;5056489;28;45476;-67
2021/07/21 05:11:42;;;;;;;;;0.00;0.00;;;;;28.41;39.22;101333.00;5056268;28;45419;-67
2021/07/21 05:14:08;;;;;;;;;0.00;0.00;;;;;28.42;39.41;101340.25;5056819;28;45385;-67
2021/07/21 05:16:35;;;;;;;;;0.00;0.00;;;;;28.41;39.06;101326.66;5056253;28;45402;-67
2021/07/21 05:19:00;;;;;;;;;0.00;0.00;;;;;28.40;39.57;101325.78;5055963;28;45540;-67
2021/07/21 05:21:27;;;;;;;;;0.00;0.00;;;;;28.42;39.33;101333.88;5054888;28;45525;-67
2021/07/21 05:23:53;;;;;;;;;0.00;0.00;;;;;28.42;39.29;101340.25;5056395;28;45461;-67
2021/07/21 05:26:18;;;;;;;;;0.00;0.00;;;;;28.42;39.22;101340.25;5055974;28;45220;-67
2021/07/21 05:28:44;;;;;;;;;0.00;0.00;;;;;28.43;39.74;101347.50;5056197;28;45506;-67
2021/07/21 05:31:09;;;;;;;;;0.00;0.00;;;;;28.45;39.97;101339.22;5056436;28;45435;-67
2021/07/21 05:33:36;;;;;;;;;0.00;0.00;;;;;28.46;39.66;101343.69;5056380;28;45710;-67
2021/07/21 05:36:03;;;;;;;;;0.00;0.00;;;;;28.45;39.17;101345.56;5056091;28;45441;-67
2021/07/21 05:38:29;;;;;;;;;0.00;0.00;;;;;28.46;39.54;101350.09;5055854;28;45426;-67
2021/07/21 05:40:55;;;;;;;;;0.00;0.00;;;;;28.46;39.84;101352.81;5056307;28;45691;-67
2021/07/21 05:43:22;;;;;;;;;0.00;0.00;;;;;28.48;39.18;101361.84;5056380;28;45750;-67
2021/07/21 05:45:47;;;;;;;;;0.00;0.00;;;;;28.48;39.20;101361.84;5055599;28;47151;-66
2021/07/21 05:48:13;;;;;;;;;0.00;0.00;;;;;28.49;39.44;101358.13;5055619;28;45440;-66
2021/07/21 05:50:38;;;;;;;;;0.00;0.00;;;;;28.51;39.30;101360.81;5055903;28;45465;-67
2021/07/21 05:53:05;;;;;;;;;0.00;0.00;;;;;28.51;39.32;101363.56;5056231;28;45483;-67
2021/07/21 05:55:31;;;;;;;;;0.00;0.00;;;;;28.53;39.53;101357.03;5055637;28;45653;-67
2021/07/21 05:57:57;;;;;;;;;0.00;0.00;;;;;28.53;39.33;101364.38;5055526;28;45445;-67
2021/07/21 06:00:22;;;;;;;;;0.00;0.00;;;;;28.55;39.40;101372.50;5055761;28;45366;-67
2021/07/21 06:02:48;;;;;;;;;0.00;0.00;;;;;28.53;39.51;101369.84;5054279;28;45735;-67
2021/07/21 06:05:15;;;;;;;;;0.00;0.00;;;;;28.55;39.32;101370.66;5055524;28;45517;-67
2021/07/21 06:07:40;;;;;;;;;0.00;0.00;;;;;28.57;39.79;101368.72;5053542;28;45958;-67
2021/07/21 06:10:06;;;;;;;;;0.67;0.33;;;;;28.56;39.85;101374.25;5039496;28;45463;-66
2021/07/21 06:12:32;;;;;;;;;3.00;3.00;;;;;28.51;39.83;101372.66;5037837;28;45438;-67
2021/07/21 06:14:58;;;;;;;;;5.00;4.00;;;;;28.47;39.57;101384.69;5045047;28;46017;-66
2021/07/21 06:17:24;;;;;;;;;6.00;6.00;;;;;28.43;39.85;101385.78;5025450;28;45541;-67
2021/07/21 06:19:49;;;;;;;;;11.00;11.00;;;;;28.37;40.30;101385.22;5055585;28;45859;-67
2021/07/21 06:22:18;;;;;;;;;10.00;10.00;;;;;28.24;40.64;101384.97;5055614;28;45542;-67
2021/07/21 06:24:47;;;;;;;;;13.67;13.67;;;;;28.15;40.94;101391.75;5054944;28;45434;-67
2021/07/21 06:27:12;;;;;;;;;8.67;8.67;;;;;27.99;40.35;101397.09;5055127;28;45478;-66
2021/07/21 06:29:39;;;;;;;;;20.67;20.00;;;;;27.76;41.24;101400.03;5055575;28;45792;-66
2021/07/21 06:32:05;;;;;;;;;13.00;12.33;;;;;27.50;41.49;101399.38;5055616;28;45539;-67
2021/07/21 06:34:30;;;;;;;;;24.33;22.67;;;;;27.30;41.89;101409.38;5055254;28;45464;-67
2021/07/21 06:36:56;;;;;;;;;26.33;26.33;;;;;27.00;42.76;101405.25;5055592;28;45400;-69
2021/07/21 06:39:21;;;;;;;;;12.00;11.33;;;;;26.79;43.30;101402.53;5055530;28;45473;-67
2021/07/21 06:41:47;;;;;;;;;20.33;19.67;;;;;26.75;43.28;101406.34;5051931;28;45463;-66
2021/07/21 06:44:12;;;;;;;;;20.00;20.00;;;;;26.77;43.23;101409.00;5057355;28;46080;-67
2021/07/21 06:46:38;;;;;;;;;19.33;18.33;;;;;26.80;43.39;101414.31;5055016;28;45619;-67
2021/07/21 06:49:04;;;;;;;;;14.67;14.67;;;;;26.85;43.57;101410.44;5055664;28;45469;-67
2021/07/21 06:51:29;;;;;;;;;17.00;15.33;;;;;26.91;43.35;101415.63;5056137;28;45455;-67
2021/07/21 06:53:55;;;;;;;;;20.67;17.33;;;;;26.98;43.47;101423.56;5055695;28;45659;-67
2021/07/21 06:56:20;;;;;;;;;12.33;12.33;;;;;27.05;43.08;101422.34;5054950;28;45480;-67
2021/07/21 06:58:45;;;;;;;;;18.67;17.33;;;;;27.09;43.11;101413.94;5023046;28;45589;-66
2021/07/21 07:01:11;;;;;;;;;12.00;12.00;;;;;27.18;43.15;101419.94;5035327;28;45519;-67
2021/07/21 07:03:36;;;;;;;;;13.33;12.67;;;;;27.23;43.08;101427.00;5034563;28;45044;-67
2021/07/21 07:06:03;;;;;;;;;14.67;13.67;;;;;27.30;43.56;101425.75;5038346;28;45471;-67
2021/07/21 07:08:30;;;;;;;;;19.33;17.33;;;;;27.37;42.88;101422.75;5054468;28;45534;-67
2021/07/21 07:10:56;;;;;;;;;17.00;17.00;;;;;27.41;43.12;101421.66;5054094;28;45362;-67
2021/07/21 07:13:21;;;;;;;;;21.33;20.33;;;;;27.40;43.02;101418.03;5033519;28;46823;-67
2021/07/21 07:15:49;;;;;;;;;16.00;14.67;;;;;27.38;43.24;101421.81;5053500;28;45404;-66
2021/07/21 07:18:14;;;;;;;;;16.00;14.00;;;;;27.32;43.03;101418.38;5054524;28;45473;-67
2021/07/21 07:20:41;;;;;;;;;20.33;19.00;;;;;27.31;43.25;101422.09;5054046;28;45558;-67
2021/07/21 07:23:07;;;;;;;;;19.00;17.67;;;;;27.33;43.30;101425.63;5053936;28;45504;-65
2021/07/21 07:25:32;;;;;;;;;12.33;12.33;;;;;27.38;42.96;101427.28;5052569;28;45387;-65
2021/07/21 07:27:58;;;;;;;;;16.00;15.00;;;;;27.43;42.84;101419.75;5049279;28;45653;-65
2021/07/21 07:30:24;;;;;;;;;14.33;14.33;;;;;27.46;42.78;101419.63;5051649;28;45496;-65
2021/07/21 07:32:49;;;;;;;;;17.33;17.00;;;;;27.48;42.68;101421.31;5049398;28;45664;-66
2021/07/21 07:35:15;;;;;;;;;18.33;18.33;;;;;27.49;42.46;101424.91;5053456;28;45455;-66
2021/07/21 07:37:41;;;;;;;;;19.00;19.00;;;;;27.44;43.24;101421.53;5051334;28;45544;-65
2021/07/21 07:40:07;;;;;;;;;21.33;21.33;;;;;27.37;42.65;101425.50;5052627;28;45309;-66
2021/07/21 07:42:33;;;;;;;;;20.67;19.67;;;;;27.36;42.65;101427.34;5051540;28;48217;-66
2021/07/21 07:44:59;;;;;;;;;17.67;17.33;;;;;27.35;43.23;101428.31;5053854;28;45365;-66
2021/07/21 07:47:24;;;;;;;;;25.33;23.67;;;;;27.38;42.93;101427.28;5056405;28;45470;-65
2021/07/21 07:49:50;;;;;;;;;24.33;22.00;;;;;27.40;42.54;101430.81;5052830;28;45444;-67
2021/07/21 07:52:15;;;;;;;;;20.00;19.67;;;;;27.42;42.89;101424.31;5035697;28;47001;-67
2021/07/21 07:54:43;;;;;;;;;23.00;21.33;;;;;27.41;42.59;101429.84;5053002;28;45499;-65
2021/07/21 07:57:10;;;;;;;;;24.00;23.33;;;;;27.35;42.10;101411.94;5033915;28;44824;-67
2021/07/21 07:59:43;;;;;;;;;28.33;25.67;;;;;27.30;42.25;101412.09;5053866;28;45678;-68
2021/07/21 08:02:08;;;;;;;;;20.33;20.00;;;;;27.29;42.70;101413.09;5049489;28;45546;-67
2021/07/21 08:04:34;;;;;;;;;29.33;27.67;;;;;27.28;41.87;101414.03;5046083;28;45576;-66
2021/07/21 08:07:00;;;;;;;;;30.33;26.67;;;;;27.22;41.43;101416.13;5016269;28;44856;-66
2021/07/21 08:09:25;;;;;;;;;24.33;24.33;;;;;27.11;41.63;101424.81;5032136;28;45472;-66
2021/07/21 08:11:57;;;;;;;;;21.67;21.67;;;;;26.97;42.22;101421.78;5035365;28;46853;-66
2021/07/21 08:14:23;;;;;;;;;23.67;21.00;;;;;26.97;42.25;101424.53;5051976;28;45539;-66
2021/07/21 08:16:50;;;;;;;;;27.00;25.67;;;;;26.97;41.90;101419.06;5016987;28;45455;-66
2021/07/21 08:19:18;;;;;;;;;27.33;26.67;;;;;26.94;41.89;101418.25;5051136;28;45834;-66
2021/07/21 08:21:44;;;;;;;;;22.33;22.00;;;;;26.96;41.81;101426.34;5055968;28;45492;-66
2021/07/21 08:24:10;;;;;;;;;19.00;17.67;;;;;26.93;41.45;101431.94;5056442;28;45469;-66
2021/07/21 08:26:36;;;;;;;;;23.33;22.33;;;;;26.80;41.33;101420.66;5059722;28;45495;-67
2021/07/21 08:29:01;;;;;;;;;24.33;22.67;;;;;26.71;41.78;101427.41;5063776;28;45455;-67
2021/07/21 08:31:27;;;;;;;;;28.67;26.33;;;;;26.66;41.44;101423.09;5055328;28;45769;-67
2021/07/21 08:33:52;;;;;;;;;20.33;19.67;;;;;26.73;42.11;101430.06;5038439;28;45451;-67
2021/07/21 08:36:18;;;;;;;;;17.67;16.00;;;;;26.78;41.95;101422.56;5051933;28;45867;-68
2021/07/21 08:38:43;;;;;;;;;22.67;21.67;;;;;26.88;41.99;101421.22;5056270;28;45573;-67
2021/07/21 08:41:09;;;;;;;;;20.00;18.33;;;;;26.99;42.01;101423.50;5055444;28;45701;-69
2021/07/21 08:43:39;;;;;;;;;22.00;20.33;;;;;27.09;41.57;101432.16;5055698;28;45553;-65
2021/07/21 08:46:04;;;;;;;;;27.00;23.00;;;;;27.14;41.14;101424.66;5052650;28;45524;-65
2021/07/21 08:48:30;;;;;;;;;18.67;18.33;;;;;27.13;41.55;101422.88;5056694;28;45386;-66
2021/07/21 08:50:56;;;;;;;;;25.00;22.67;;;;;27.14;41.46;101422.78;5054877;28;45880;-66
2021/07/21 08:53:21;;;;;;;;;21.33;20.33;;;;;27.19;40.76;101418.97;5056779;28;45489;-66
2021/07/21 08:55:52;;;;;;;;;24.67;19.67;;;;;27.21;41.19;101417.06;5056852;28;45557;-66
2021/07/21 08:58:20;;;;;;;;;20.67;19.67;;;;;27.19;40.68;101421.69;5041318;28;45437;-66
2021/07/21 09:00:49;;;;;;;;;21.00;19.67;;;;;27.18;40.49;101426.28;5055714;28;45509;-66
2021/07/21 09:03:14;;;;;;;;;18.00;18.00;;;;;27.18;40.55;101426.28;5055768;28;45544;-66
2021/07/21 09:05:40;;;;;;;;;21.00;18.00;;;;;27.16;40.15;101422.72;5051298;28;45531;-65
2021/07/21 09:08:05;;;;;;;;;22.00;20.00;;;;;27.19;39.92;101416.25;5051890;28;45710;-67
2021/07/21 09:10:31;;;;;;;;;18.67;18.67;;;;;27.20;40.04;101418.03;5053380;28;45420;-65
2021/07/21 09:12:56;;;;;;;;;20.67;18.33;;;;;27.21;39.94;101426.16;5034492;28;45807;-66
2021/07/21 09:15:23;;;;;;;;;20.00;19.00;;;;;27.24;39.65;101420.59;5056670;28;45462;-67
2021/07/21 09:18:15;;;;;;;;;20.33;18.00;;;;;27.30;39.72;101420.31;5054932;28;45439;-66
2021/07/21 09:20:47;;;;;;;;;20.33;20.33;;;;;27.30;39.74;101430.34;5048992;28;45472;-65
2021/07/21 09:23:13;;;;;;;;;23.33;20.00;;;;;27.29;39.61;101426.75;5055098;28;45600;-67
2021/07/21 09:25:41;;;;;;;;;22.00;20.00;;;;;27.28;39.32;101426.78;5054020;28;45488;-67
2021/07/21 09:28:10;;;;;;;;;20.33;19.67;;;;;27.20;39.39;101429.84;5053082;28;45465;-67
2021/07/21 09:30:39;;;;;;;;;20.00;18.33;;;;;27.21;39.44;101431.63;5056335;28;45753;-66
2021/07/21 09:33:13;;;;;;;;;17.33;15.67;;;;;27.21;39.84;101430.72;5056007;28;45221;-66
2021/07/21 09:35:43;;;;;;;;;19.00;18.00;;;;;27.19;39.26;101436.28;5055378;28;45491;-66
2021/07/21 09:38:14;;;;;;;;;18.00;18.00;;;;;27.18;39.64;101429.00;5056014;28;45437;-66
2021/07/21 09:40:44;;;;;;;;;20.67;20.67;;;;;27.22;39.92;101422.47;5055192;28;45479;-66
2021/07/21 09:43:12;;;;;;;;;17.00;17.00;;;;;27.26;40.18;101426.84;5056042;28;45321;-66
2021/07/21 09:45:39;;;;;;;;;20.00;18.00;;;;;27.28;39.86;101422.22;5037319;28;45678;-67
2021/07/21 09:48:04;;;;;;;;;18.67;18.67;;;;;27.31;40.13;101416.63;5033948;28;45440;-67
2021/07/21 09:50:30;;;;;;;;;17.67;17.67;;;;;27.39;40.04;101412.66;5054383;28;45611;-67
2021/07/21 09:53:04;;;;;;;;;19.33;19.33;;;;;27.44;39.80;101410.59;5055158;28;45519;-66
2021/07/21 09:55:30;;;;;;;;;18.33;18.33;;;;;27.51;40.23;101415.72;5055699;28;45403;-66
2021/07/21 09:58:10;;;;;;;;;21.00;19.00;;;;;27.59;39.60;101409.91;5056058;28;45665;-67
2021/07/21 10:00:40;;;;;;;;;15.67;14.00;;;;;27.65;39.58;101414.19;5037088;28;47159;-66
2021/07/21 10:03:12;;;;;;;;;15.67;14.67;;;;;27.68;39.69;101412.19;5055551;28;45440;-66
2021/07/21 10:06:03;;;;;;;;;14.67;14.67;;;;;27.70;39.83;101413.00;5037324;28;45513;-67
2021/07/21 10:08:39;;;;;;;;;18.00;18.00;;;;;27.70;39.99;101413.00;5036552;28;45406;-66
2021/07/21 10:11:35;;;;;;;;;22.00;18.33;;;;;27.67;39.50;101412.25;5037068;28;45456;-66
2021/07/21 10:14:03;;;;;;;;;18.33;16.33;;;;;27.61;39.19;101408.00;5055981;28;45598;-67
2021/07/21 10:16:36;;;;;;;;;19.67;17.33;;;;;27.63;40.02;101417.00;5055254;28;45580;-66
2021/07/21 10:19:23;;;;;;;;;14.67;14.67;;;;;27.67;40.07;101409.53;5055264;28;45397;-66
2021/07/21 10:21:51;;;;;;;;;17.33;14.67;;;;;27.70;39.44;101413.00;5051298;28;46220;-65
2021/07/21 10:24:17;;;;;;;;;20.00;19.33;;;;;27.71;39.63;101409.34;5055320;28;45547;-66
2021/07/21 10:26:44;;;;;;;;;19.33;17.00;;;;;27.72;39.37;101416.56;5055351;28;45848;-67
2021/07/21 10:29:10;;;;;;;;;20.00;20.00;;;;;27.72;40.08;101405.63;5055440;28;45769;-66
2021/07/21 10:31:38;;;;;;;;;19.33;18.67;;;;;27.72;39.82;101410.22;5053958;28;46045;-66
2021/07/21 10:34:04;;;;;;;;;19.00;19.00;;;;;27.67;39.96;101406.78;5053732;28;45514;-66
2021/07/21 10:36:31;;;;;;;;;20.67;20.67;;;;;27.64;39.27;101406.94;5054916;28;45587;-67
2021/07/21 10:38:58;;;;;;;;;18.00;15.67;;;;;27.63;39.45;101407.91;5053513;28;45474;-66
2021/07/21 10:41:28;;;;;;;;;16.67;16.67;;;;;27.59;40.26;101404.44;5036374;28;46303;-66
2021/07/21 10:43:56;;;;;;;;;18.33;17.67;;;;;27.58;39.84;101408.13;5054636;28;45511;-66
2021/07/21 10:46:48;;;;;;;;;17.00;16.33;;;;;27.62;39.66;101408.88;5037194;28;45352;-66
2021/07/21 10:49:37;;;;;;;;;18.00;15.67;;;;;27.68;39.92;101408.56;5037081;28;45422;-68
2021/07/21 10:54:55;;;;;;;;;16.00;14.00;;;;;27.81;40.05;101408.88;5053985;28;45694;-67
2021/07/21 11:00:19;;;;;;;;;20.33;20.33;;;;;27.86;40.05;101407.72;5054993;28;45543;-67
2021/07/21 11:02:46;;;;;;;;;20.00;18.00;;;;;27.89;39.93;101410.31;5053823;28;45864;-67
2021/07/21 11:05:26;;;;;;;;;17.67;16.67;;;;;27.93;39.84;101400.13;5054223;28;45492;-67
2021/07/21 11:07:54;;;;;;;;;14.67;14.67;;;;;27.95;39.53;101403.66;5055028;28;45586;-67
2021/07/21 11:10:50;;;;;;;;;17.00;17.00;;;;;27.93;40.36;101397.38;5053920;28;45473;-67
2021/07/21 11:13:31;;;;;;;;;18.67;17.67;;;;;27.95;39.94;101405.53;5036956;28;45603;-67
2021/07/21 11:15:58;;;;;;;;;17.00;16.33;;;;;27.97;40.47;101398.13;5054545;28;45437;-67
2021/07/21 11:18:26;;;;;;;;;17.33;16.00;;;;;27.96;39.87;101399.09;5054374;28;45418;-68
2021/07/21 11:21:11;;;;;;;;;18.00;17.67;;;;;27.92;40.32;101390.16;5046405;28;45474;-67
2021/07/21 11:23:51;;;;;;;;;20.00;16.67;;;;;27.88;39.73;101399.47;5039931;28;45443;-67
2021/07/21 11:26:43;;;;;;;;;17.67;14.33;;;;;27.86;39.75;101395.91;5054543;28;45434;-67
2021/07/21 11:29:23;;;;;;;;;19.67;16.33;;;;;27.83;39.95;101390.56;5046847;28;45551;-67
2021/07/21 11:31:49;;;;;;;;;22.00;20.00;;;;;27.85;40.22;101383.16;5054187;28;45628;-67
2021/07/21 11:34:28;;;;;;;;;15.33;15.00;;;;;27.88;40.92;101383.94;5053924;28;45772;-66